Terminal Aerodrome Forecast
Issued by NWS

Home | Current Version | Previous Version | Text Only | Print | Product List | Glossary On
Versions: 1 2 3 4 5 6 7 8 9 10 11 12 13 14 15 16 17 18 19 20 21 22 23 24 25 26 27 28 29 30 31 32 33 34 35 36 37 38 39
000
FTUS44 KOUN 230531
TAFLAW
TAF
KLAW 230531Z 2306/2406 17011KT 1SM BR OVC004
      TEMPO 2306/2310 1/4SM FG VV002
     FM231100 18010KT 4SM BR OVC006
     FM231500 23013KT P6SM SCT015
     FM231900 33016G24KT P6SM SCT030
     FM232100 34022G31KT P6SM BKN030
     FM240300 32010KT P6SM SKC=

USA.gov is the U.S. government's official web portal to all federal, state and local government web resources and services.